sensor_id;sensor_type;location;lat;lon;timestamp;pressure;altitude;pressure_sealevel;temperature;humidity
57114;BME280;42994;51.606;9.988;2023-04-25T00:01:44;98220.97;;;5.26;100.00
57114;BME280;42994;51.606;9.988;2023-04-25T00:04:11;98225.38;;;5.11;100.00
57114;BME280;42994;51.606;9.988;2023-04-25T00:06:38;98227.06;;;5.04;100.00
57114;BME280;42994;51.606;9.988;2023-04-25T00:09:05;98222.06;;;5.09;100.00
57114;BME280;42994;51.606;9.988;2023-04-25T00:11:34;98227.22;;;5.10;100.00
57114;BME280;42994;51.606;9.988;2023-04-25T00:14:03;98219.59;;;5.07;100.00
57114;BME280;42994;51.606;9.988;2023-04-25T00:16:30;98224.09;;;5.07;100.00
57114;BME280;42994;51.606;9.988;2023-04-25T00:18:59;98231.22;;;5.06;100.00
57114;BME280;42994;51.606;9.988;2023-04-25T00:21:26;98229.88;;;5.10;100.00
57114;BME280;42994;51.606;9.988;2023-04-25T00:23:53;98228.91;;;5.03;100.00
57114;BME280;42994;51.606;9.988;2023-04-25T00:26:20;98231.75;;;5.01;100.00
57114;BME280;42994;51.606;9.988;2023-04-25T00:28:47;98226.31;;;4.95;100.00
57114;BME280;42994;51.606;9.988;2023-04-25T00:31:15;98219.53;;;4.92;100.00
57114;BME280;42994;51.606;9.988;2023-04-25T00:33:41;98215.06;;;4.93;100.00
57114;BME280;42994;51.606;9.988;2023-04-25T00:36:08;98211.91;;;4.89;100.00
57114;BME280;42994;51.606;9.988;2023-04-25T00:38:35;98223.69;;;4.87;100.00
57114;BME280;42994;51.606;9.988;2023-04-25T00:41:04;98221.19;;;4.93;100.00
57114;BME280;42994;51.606;9.988;2023-04-25T00:43:32;98223.53;;;4.88;100.00
57114;BME280;42994;51.606;9.988;2023-04-25T00:46:00;98219.22;;;4.87;100.00
57114;BME280;42994;51.606;9.988;2023-04-25T00:48:28;98216.91;;;4.84;100.00
57114;BME280;42994;51.606;9.988;2023-04-25T00:50:57;98229.91;;;4.71;100.00
57114;BME280;42994;51.606;9.988;2023-04-25T00:53:27;98223.78;;;4.70;100.00
57114;BME280;42994;51.606;9.988;2023-04-25T00:55:54;98225.63;;;4.70;100.00
57114;BME280;42994;51.606;9.988;2023-04-25T00:58:22;98227.47;;;4.61;100.00
57114;BME280;42994;51.606;9.988;2023-04-25T01:00:50;98219.53;;;4.61;100.00
57114;BME280;42994;51.606;9.988;2023-04-25T01:03:17;98214.53;;;4.66;100.00
57114;BME280;42994;51.606;9.988;2023-04-25T01:05:46;98222.03;;;4.54;100.00
57114;BME280;42994;51.606;9.988;2023-04-25T01:08:14;98220.94;;;4.40;100.00
57114;BME280;42994;51.606;9.988;2023-04-25T01:10:41;98218.41;;;4.47;100.00
57114;BME280;42994;51.606;9.988;2023-04-25T01:13:08;98216.66;;;4.31;100.00
57114;BME280;42994;51.606;9.988;2023-04-25T01:15:34;98204.06;;;4.33;100.00
57114;BME280;42994;51.606;9.988;2023-04-25T01:18:02;98213.69;;;4.26;100.00
57114;BME280;42994;51.606;9.988;2023-04-25T01:20:29;98214.19;;;4.30;100.00
57114;BME280;42994;51.606;9.988;2023-04-25T01:22:59;98206.69;;;4.33;100.00
57114;BME280;42994;51.606;9.988;2023-04-25T01:25:27;98198.91;;;4.40;100.00
57114;BME280;42994;51.606;9.988;2023-04-25T01:27:54;98215.31;;;4.43;100.00
57114;BME280;42994;51.606;9.988;2023-04-25T01:30:21;98198.50;;;4.51;100.00
57114;BME280;42994;51.606;9.988;2023-04-25T01:32:49;98194.50;;;4.55;100.00
57114;BME280;42994;51.606;9.988;2023-04-25T01:35:15;98198.50;;;4.51;100.00
57114;BME280;42994;51.606;9.988;2023-04-25T01:37:42;98205.94;;;4.56;100.00
57114;BME280;42994;51.606;9.988;2023-04-25T01:40:12;98196.44;;;4.61;100.00
57114;BME280;42994;51.606;9.988;2023-04-25T01:42:42;98202.25;;;4.65;100.00
57114;BME280;42994;51.606;9.988;2023-04-25T01:45:10;98203.56;;;4.69;100.00
57114;BME280;42994;51.606;9.988;2023-04-25T01:47:38;98214.19;;;4.69;100.00
57114;BME280;42994;51.606;9.988;2023-04-25T01:50:06;98202.22;;;4.73;100.00
57114;BME280;42994;51.606;9.988;2023-04-25T01:52:35;98202.88;;;4.67;100.00
57114;BME280;42994;51.606;9.988;2023-04-25T01:55:02;98206.91;;;4.63;100.00
57114;BME280;42994;51.606;9.988;2023-04-25T01:57:33;98216.03;;;4.60;100.00
57114;BME280;42994;51.606;9.988;2023-04-25T02:00:04;98201.75;;;4.61;100.00
57114;BME280;42994;51.606;9.988;2023-04-25T02:02:37;98213.72;;;4.66;100.00
57114;BME280;42994;51.606;9.988;2023-04-25T02:05:08;98215.41;;;4.58;100.00
57114;BME280;42994;51.606;9.988;2023-04-25T02:07:38;98211.72;;;4.59;100.00
57114;BME280;42994;51.606;9.988;2023-04-25T02:10:06;98213.22;;;4.62;100.00
57114;BME280;42994;51.606;9.988;2023-04-25T02:12:39;98212.91;;;4.57;100.00
57114;BME280;42994;51.606;9.988;2023-04-25T02:15:23;98208.47;;;4.49;100.00
57114;BME280;42994;51.606;9.988;2023-04-25T02:17:54;98208.47;;;4.49;100.00
57114;BME280;42994;51.606;9.988;2023-04-25T02:20:22;98201.66;;;4.47;100.00
57114;BME280;42994;51.606;9.988;2023-04-25T02:22:49;98209.94;;;4.52;100.00
57114;BME280;42994;51.606;9.988;2023-04-25T02:25:16;98199.50;;;4.50;100.00
57114;BME280;42994;51.606;9.988;2023-04-25T02:27:44;98198.63;;;4.58;100.00
57114;BME280;42994;51.606;9.988;2023-04-25T02:30:11;98205.94;;;4.56;100.00
57114;BME280;42994;51.606;9.988;2023-04-25T02:32:38;98197.31;;;4.54;100.00
57114;BME280;42994;51.606;9.988;2023-04-25T02:35:05;98198.94;;;4.63;100.00
57114;BME280;42994;51.606;9.988;2023-04-25T02:37:34;98198.44;;;4.59;100.00
57114;BME280;42994;51.606;9.988;2023-04-25T02:40:01;98197.81;;;4.57;100.00
57114;BME280;42994;51.606;9.988;2023-04-25T02:42:31;98189.66;;;4.59;100.00
57114;BME280;42994;51.606;9.988;2023-04-25T02:44:59;98195.16;;;4.57;100.00
57114;BME280;42994;51.606;9.988;2023-04-25T02:47:26;98182.53;;;4.59;100.00
57114;BME280;42994;51.606;9.988;2023-04-25T02:49:52;98186.84;;;4.60;100.00
57114;BME280;42994;51.606;9.988;2023-04-25T02:52:19;98187.00;;;4.59;100.00
57114;BME280;42994;51.606;9.988;2023-04-25T02:54:53;98192.31;;;4.59;100.00
57114;BME280;42994;51.606;9.988;2023-04-25T02:57:19;98190.66;;;4.58;100.00
57114;BME280;42994;51.606;9.988;2023-04-25T02:59:46;98189.34;;;4.62;100.00
57114;BME280;42994;51.606;9.988;2023-04-25T03:02:14;98192.00;;;4.62;100.00
57114;BME280;42994;51.606;9.988;2023-04-25T03:04:41;98189.13;;;4.63;100.00
57114;BME280;42994;51.606;9.988;2023-04-25T03:07:08;98195.28;;;4.64;100.00
57114;BME280;42994;51.606;9.988;2023-04-25T03:09:35;98197.28;;;4.62;100.00
57114;BME280;42994;51.606;9.988;2023-04-25T03:12:02;98197.41;;;4.69;100.00
57114;BME280;42994;51.606;9.988;2023-04-25T03:14:30;98202.25;;;4.65;100.00
57114;BME280;42994;51.606;9.988;2023-04-25T03:16:58;98200.72;;;4.71;100.00
57114;BME280;42994;51.606;9.988;2023-04-25T03:19:26;98205.53;;;4.67;100.00
57114;BME280;42994;51.606;9.988;2023-04-25T03:21:52;98200.91;;;4.69;100.00
57114;BME280;42994;51.606;9.988;2023-04-25T03:24:21;98206.25;;;4.61;100.00
57114;BME280;42994;51.606;9.988;2023-04-25T03:26:48;98208.03;;;4.69;100.00
57114;BME280;42994;51.606;9.988;2023-04-25T03:29:14;98196.13;;;4.65;100.00
57114;BME280;42994;51.606;9.988;2023-04-25T03:31:42;98201.91;;;4.68;100.00
57114;BME280;42994;51.606;9.988;2023-04-25T03:34:09;98205.44;;;4.60;100.00
57114;BME280;42994;51.606;9.988;2023-04-25T03:36:37;98212.53;;;4.68;100.00
57114;BME280;42994;51.606;9.988;2023-04-25T03:39:04;98210.25;;;4.57;100.00
57114;BME280;42994;51.606;9.988;2023-04-25T03:41:32;98208.56;;;4.64;100.00
57114;BME280;42994;51.606;9.988;2023-04-25T03:44:07;98211.06;;;4.66;100.00
57114;BME280;42994;51.606;9.988;2023-04-25T03:46:33;98203.28;;;4.56;100.00
57114;BME280;42994;51.606;9.988;2023-04-25T03:49:00;98198.34;;;4.53;100.00
57114;BME280;42994;51.606;9.988;2023-04-25T03:51:42;98203.94;;;4.58;100.00
57114;BME280;42994;51.606;9.988;2023-04-25T03:54:09;98213.88;;;4.64;100.00
57114;BME280;42994;51.606;9.988;2023-04-25T03:56:38;98210.91;;;4.59;100.00
57114;BME280;42994;51.606;9.988;2023-04-25T03:59:15;98205.25;;;4.62;100.00
57114;BME280;42994;51.606;9.988;2023-04-25T04:01:42;98206.59;;;4.58;100.00
57114;BME280;42994;51.606;9.988;2023-04-25T04:04:09;98207.78;;;4.55;100.00
57114;BME280;42994;51.606;9.988;2023-04-25T04:06:35;98209.91;;;4.60;100.00
57114;BME280;42994;51.606;9.988;2023-04-25T04:09:24;98207.91;;;4.62;100.00
57114;BME280;42994;51.606;9.988;2023-04-25T04:11:51;98213.56;;;4.59;100.00
57114;BME280;42994;51.606;9.988;2023-04-25T04:14:18;98220.06;;;4.48;100.00
57114;BME280;42994;51.606;9.988;2023-04-25T04:16:47;98214.25;;;4.53;100.00
57114;BME280;42994;51.606;9.988;2023-04-25T04:19:14;98212.44;;;4.53;100.00
57114;BME280;42994;51.606;9.988;2023-04-25T04:21:46;98209.91;;;4.60;100.00
57114;BME280;42994;51.606;9.988;2023-04-25T04:24:13;98217.09;;;4.51;100.00
57114;BME280;42994;51.606;9.988;2023-04-25T04:27:00;98220.53;;;4.60;100.00
57114;BME280;42994;51.606;9.988;2023-04-25T04:29:35;98220.38;;;4.53;100.00
57114;BME280;42994;51.606;9.988;2023-04-25T04:32:09;98224.19;;;4.59;100.00
57114;BME280;42994;51.606;9.988;2023-04-25T04:34:36;98226.03;;;4.50;100.00
57114;BME280;42994;51.606;9.988;2023-04-25T04:37:03;98225.53;;;4.47;100.00
57114;BME280;42994;51.606;9.988;2023-04-25T04:39:30;98221.38;;;4.52;100.00
57114;BME280;42994;51.606;9.988;2023-04-25T04:42:07;98222.88;;;4.55;100.00
57114;BME280;42994;51.606;9.988;2023-04-25T04:44:45;98227.72;;;4.43;100.00
57114;BME280;42994;51.606;9.988;2023-04-25T04:47:22;98220.59;;;4.43;100.00
57114;BME280;42994;51.606;9.988;2023-04-25T04:50:09;98225.06;;;4.43;100.00
57114;BME280;42994;51.606;9.988;2023-04-25T04:52:54;98218.59;;;4.46;100.00
57114;BME280;42994;51.606;9.988;2023-04-25T04:55:42;98223.44;;;4.42;100.00
57114;BME280;42994;51.606;9.988;2023-04-25T04:58:29;98222.91;;;4.47;100.00
57114;BME280;42994;51.606;9.988;2023-04-25T05:01:21;98224.06;;;4.44;100.00
57114;BME280;42994;51.606;9.988;2023-04-25T05:04:14;98222.56;;;4.41;100.00
57114;BME280;42994;51.606;9.988;2023-04-25T05:07:03;98217.63;;;4.38;100.00
57114;BME280;42994;51.606;9.988;2023-04-25T05:09:48;98217.25;;;4.50;100.00
57114;BME280;42994;51.606;9.988;2023-04-25T05:12:41;98228.72;;;4.42;100.00
57114;BME280;42994;51.606;9.988;2023-04-25T05:15:37;98224.88;;;4.53;100.00
57114;BME280;42994;51.606;9.988;2023-04-25T05:18:16;98229.22;;;4.37;100.00
57114;BME280;42994;51.606;9.988;2023-04-25T05:20:55;98235.19;;;4.48;100.00
57114;BME280;42994;51.606;9.988;2023-04-25T05:23:44;98236.63;;;4.58;100.00
57114;BME280;42994;51.606;9.988;2023-04-25T05:26:31;98249.03;;;4.66;100.00
57114;BME280;42994;51.606;9.988;2023-04-25T05:29:05;98248.22;;;4.66;100.00
57114;BME280;42994;51.606;9.988;2023-04-25T05:31:37;98254.00;;;4.69;100.00
57114;BME280;42994;51.606;9.988;2023-04-25T05:34:10;98250.06;;;4.57;100.00
57114;BME280;42994;51.606;9.988;2023-04-25T05:36:50;98254.34;;;4.66;100.00
57114;BME280;42994;51.606;9.988;2023-04-25T05:39:17;98258.94;;;4.72;100.00
57114;BME280;42994;51.606;9.988;2023-04-25T05:42:02;98262.03;;;4.45;100.00
57114;BME280;42994;51.606;9.988;2023-04-25T05:44:47;98271.81;;;4.52;100.00
57114;BME280;42994;51.606;9.988;2023-04-25T05:47:34;98288.09;;;4.49;100.00
57114;BME280;42994;51.606;9.988;2023-04-25T05:50:24;98287.41;;;4.47;100.00
57114;BME280;42994;51.606;9.988;2023-04-25T05:52:58;98295.56;;;4.37;100.00
57114;BME280;42994;51.606;9.988;2023-04-25T05:55:31;98296.59;;;4.36;100.00
57114;BME280;42994;51.606;9.988;2023-04-25T05:58:00;98295.06;;;4.34;100.00
57114;BME280;42994;51.606;9.988;2023-04-25T06:00:27;98303.84;;;4.34;100.00
57114;BME280;42994;51.606;9.988;2023-04-25T06:02:56;98308.50;;;4.32;100.00
57114;BME280;42994;51.606;9.988;2023-04-25T06:05:23;98313.97;;;4.31;100.00
57114;BME280;42994;51.606;9.988;2023-04-25T06:07:50;98325.75;;;4.28;100.00
57114;BME280;42994;51.606;9.988;2023-04-25T06:10:16;98336.06;;;4.31;100.00
57114;BME280;42994;51.606;9.988;2023-04-25T06:12:43;98336.72;;;4.33;100.00
57114;BME280;42994;51.606;9.988;2023-04-25T06:15:12;98333.53;;;4.38;100.00
57114;BME280;42994;51.606;9.988;2023-04-25T06:17:39;98338.06;;;4.29;100.00
57114;BME280;42994;51.606;9.988;2023-04-25T06:20:09;98341.69;;;4.36;100.00
57114;BME280;42994;51.606;9.988;2023-04-25T06:22:36;98341.81;;;4.43;100.00
57114;BME280;42994;51.606;9.988;2023-04-25T06:25:03;98346.63;;;4.48;100.00
57114;BME280;42994;51.606;9.988;2023-04-25T06:27:31;98351.97;;;4.31;100.00
57114;BME280;42994;51.606;9.988;2023-04-25T06:29:58;98353.94;;;4.37;100.00
57114;BME280;42994;51.606;9.988;2023-04-25T06:32:25;98354.47;;;4.33;100.00
57114;BME280;42994;51.606;9.988;2023-04-25T06:34:56;98353.41;;;4.50;100.00
57114;BME280;42994;51.606;9.988;2023-04-25T06:37:25;98345.97;;;4.46;100.00
57114;BME280;42994;51.606;9.988;2023-04-25T06:39:52;98353.63;;;4.40;100.00
57114;BME280;42994;51.606;9.988;2023-04-25T06:42:18;98354.09;;;4.36;100.00
57114;BME280;42994;51.606;9.988;2023-04-25T06:44:51;98355.59;;;4.30;100.00
57114;BME280;42994;51.606;9.988;2023-04-25T06:47:19;98352.94;;;4.30;100.00
57114;BME280;42994;51.606;9.988;2023-04-25T06:49:47;98355.28;;;4.25;100.00
57114;BME280;42994;51.606;9.988;2023-04-25T06:52:14;98358.91;;;4.32;100.00
57114;BME280;42994;51.606;9.988;2023-04-25T06:54:44;98354.63;;;4.31;100.00
57114;BME280;42994;51.606;9.988;2023-04-25T06:57:34;98359.75;;;4.24;100.00
57114;BME280;42994;51.606;9.988;2023-04-25T07:00:20;98367.72;;;4.24;100.00
57114;BME280;42994;51.606;9.988;2023-04-25T07:02:47;98370.53;;;4.31;100.00
57114;BME280;42994;51.606;9.988;2023-04-25T07:05:14;98370.06;;;4.11;100.00
57114;BME280;42994;51.606;9.988;2023-04-25T07:07:41;98382.31;;;4.12;100.00
57114;BME280;42994;51.606;9.988;2023-04-25T07:10:09;98388.28;;;4.22;100.00
57114;BME280;42994;51.606;9.988;2023-04-25T07:12:36;98388.78;;;4.26;100.00
57114;BME280;42994;51.606;9.988;2023-04-25T07:15:05;98390.59;;;4.17;100.00
57114;BME280;42994;51.606;9.988;2023-04-25T07:17:40;98388.28;;;4.14;100.00
57114;BME280;42994;51.606;9.988;2023-04-25T07:20:07;98393.75;;;4.21;100.00
57114;BME280;42994;51.606;9.988;2023-04-25T07:22:35;98396.41;;;4.21;100.00
57114;BME280;42994;51.606;9.988;2023-04-25T07:25:04;98397.06;;;4.07;100.00
57114;BME280;42994;51.606;9.988;2023-04-25T07:27:34;98401.06;;;4.11;100.00
57114;BME280;42994;51.606;9.988;2023-04-25T07:30:09;98401.38;;;4.08;100.00
57114;BME280;42994;51.606;9.988;2023-04-25T07:32:38;98411.81;;;4.01;100.00
57114;BME280;42994;51.606;9.988;2023-04-25T07:35:06;98415.47;;;4.16;100.00
57114;BME280;42994;51.606;9.988;2023-04-25T07:37:33;98417.31;;;4.24;100.00
57114;BME280;42994;51.606;9.988;2023-04-25T07:40:07;98423.59;;;4.15;100.00
57114;BME280;42994;51.606;9.988;2023-04-25T07:42:37;98428.06;;;4.31;100.00
57114;BME280;42994;51.606;9.988;2023-04-25T07:45:06;98431.56;;;4.39;100.00
57114;BME280;42994;51.606;9.988;2023-04-25T07:47:33;98420.91;;;4.56;100.00
57114;BME280;42994;51.606;9.988;2023-04-25T07:50:00;98435.84;;;4.65;100.00
57114;BME280;42994;51.606;9.988;2023-04-25T07:52:26;98421.22;;;4.86;100.00
57114;BME280;42994;51.606;9.988;2023-04-25T07:55:01;98428.66;;;4.90;100.00
57114;BME280;42994;51.606;9.988;2023-04-25T07:57:41;98431.97;;;5.00;100.00
57114;BME280;42994;51.606;9.988;2023-04-25T08:00:09;98428.94;;;5.12;100.00
57114;BME280;42994;51.606;9.988;2023-04-25T08:02:39;98430.88;;;5.26;100.00
57114;BME280;42994;51.606;9.988;2023-04-25T08:05:10;98444.28;;;5.33;100.00
57114;BME280;42994;51.606;9.988;2023-04-25T08:07:44;98440.44;;;5.44;100.00
57114;BME280;42994;51.606;9.988;2023-04-25T08:10:11;98437.38;;;5.63;100.00
57114;BME280;42994;51.606;9.988;2023-04-25T08:12:38;98449.53;;;5.49;100.00
57114;BME280;42994;51.606;9.988;2023-04-25T08:15:08;98453.94;;;5.42;100.00
57114;BME280;42994;51.606;9.988;2023-04-25T08:17:38;98463.22;;;5.77;100.00
57114;BME280;42994;51.606;9.988;2023-04-25T08:20:06;98459.34;;;5.88;100.00
57114;BME280;42994;51.606;9.988;2023-04-25T08:22:34;98468.97;;;5.89;100.00
57114;BME280;42994;51.606;9.988;2023-04-25T08:25:30;98472.56;;;6.05;100.00
57114;BME280;42994;51.606;9.988;2023-04-25T08:27:57;98477.63;;;6.23;100.00
57114;BME280;42994;51.606;9.988;2023-04-25T08:30:26;98486.69;;;6.05;100.00
57114;BME280;42994;51.606;9.988;2023-04-25T08:32:53;98482.06;;;6.30;100.00
57114;BME280;42994;51.606;9.988;2023-04-25T08:35:44;98498.44;;;6.19;100.00
57114;BME280;42994;51.606;9.988;2023-04-25T08:38:13;98494.75;;;6.20;100.00
57114;BME280;42994;51.606;9.988;2023-04-25T08:40:40;98498.06;;;6.22;100.00
57114;BME280;42994;51.606;9.988;2023-04-25T08:43:13;98501.50;;;6.08;100.00
57114;BME280;42994;51.606;9.988;2023-04-25T08:45:42;98496.41;;;6.21;100.00
57114;BME280;42994;51.606;9.988;2023-04-25T08:48:14;98497.31;;;6.37;100.00
57114;BME280;42994;51.606;9.988;2023-04-25T08:50:45;98500.75;;;6.45;100.00
57114;BME280;42994;51.606;9.988;2023-04-25T08:53:14;98498.31;;;6.59;100.00
57114;BME280;42994;51.606;9.988;2023-04-25T08:55:46;98494.69;;;6.74;100.00
57114;BME280;42994;51.606;9.988;2023-04-25T08:58:13;98491.22;;;6.89;100.00
57114;BME280;42994;51.606;9.988;2023-04-25T09:00:41;98498.38;;;6.73;100.00
57114;BME280;42994;51.606;9.988;2023-04-25T09:03:10;98499.25;;;6.66;100.00
57114;BME280;42994;51.606;9.988;2023-04-25T09:05:37;98514.78;;;6.39;100.00
57114;BME280;42994;51.606;9.988;2023-04-25T09:08:04;98528.59;;;6.34;100.00
57114;BME280;42994;51.606;9.988;2023-04-25T09:10:32;98520.28;;;6.38;100.00
57114;BME280;42994;51.606;9.988;2023-04-25T09:13:03;98543.28;;;6.30;100.00
57114;BME280;42994;51.606;9.988;2023-04-25T09:15:48;98547.63;;;6.23;100.00
57114;BME280;42994;51.606;9.988;2023-04-25T09:18:38;98552.44;;;5.88;100.00
57114;BME280;42994;51.606;9.988;2023-04-25T09:21:06;98561.06;;;5.99;100.00
57114;BME280;42994;51.606;9.988;2023-04-25T09:23:39;98560.78;;;6.25;100.00
57114;BME280;42994;51.606;9.988;2023-04-25T09:26:07;98565.47;;;6.14;100.00
57114;BME280;42994;51.606;9.988;2023-04-25T09:28:35;98557.94;;;6.26;100.00
57114;BME280;42994;51.606;9.988;2023-04-25T09:31:04;98564.78;;;6.21;100.00
57114;BME280;42994;51.606;9.988;2023-04-25T09:33:36;98564.66;;;6.14;100.00
57114;BME280;42994;51.606;9.988;2023-04-25T09:36:06;98567.63;;;6.19;100.00
57114;BME280;42994;51.606;9.988;2023-04-25T09:38:52;98566.34;;;6.38;100.00
57114;BME280;42994;51.606;9.988;2023-04-25T09:41:26;98570.81;;;6.69;100.00
57114;BME280;42994;51.606;9.988;2023-04-25T09:43:56;98571.31;;;6.87;100.00
57114;BME280;42994;51.606;9.988;2023-04-25T09:46:33;98567.84;;;6.64;100.00
57114;BME280;42994;51.606;9.988;2023-04-25T09:49:06;98570.94;;;6.76;100.00
57114;BME280;42994;51.606;9.988;2023-04-25T09:51:40;98574.97;;;6.40;100.00
57114;BME280;42994;51.606;9.988;2023-04-25T09:54:08;98575.78;;;6.49;100.00
57114;BME280;42994;51.606;9.988;2023-04-25T09:56:42;98578.94;;;6.76;100.00
57114;BME280;42994;51.606;9.988;2023-04-25T09:59:11;98592.03;;;6.77;100.00
57114;BME280;42994;51.606;9.988;2023-04-25T10:01:41;98574.72;;;6.81;100.00
57114;BME280;42994;51.606;9.988;2023-04-25T10:04:23;98591.00;;;6.86;100.00
57114;BME280;42994;51.606;9.988;2023-04-25T10:06:56;98587.75;;;6.99;100.00
57114;BME280;42994;51.606;9.988;2023-04-25T10:09:25;98586.16;;;6.90;100.00
57114;BME280;42994;51.606;9.988;2023-04-25T10:11:55;98591.56;;;6.97;100.00
57114;BME280;42994;51.606;9.988;2023-04-25T10:14:23;98593.47;;;6.88;100.00
57114;BME280;42994;51.606;9.988;2023-04-25T10:16:53;98584.00;;;7.08;100.00
57114;BME280;42994;51.606;9.988;2023-04-25T10:19:21;98586.00;;;7.06;100.00
57114;BME280;42994;51.606;9.988;2023-04-25T10:21:51;98595.34;;;7.02;100.00
57114;BME280;42994;51.606;9.988;2023-04-25T10:24:19;98594.38;;;7.03;100.00
57114;BME280;42994;51.606;9.988;2023-04-25T10:26:46;98595.91;;;6.98;100.00
57114;BME280;42994;51.606;9.988;2023-04-25T10:29:21;98592.03;;;7.00;100.00
57114;BME280;42994;51.606;9.988;2023-04-25T10:31:48;98595.88;;;7.21;100.00
57114;BME280;42994;51.606;9.988;2023-04-25T10:34:16;98598.25;;;7.16;100.00
57114;BME280;42994;51.606;9.988;2023-04-25T10:36:49;98596.84;;;6.82;100.00
57114;BME280;42994;51.606;9.988;2023-04-25T10:39:22;98599.81;;;6.64;100.00
57114;BME280;42994;51.606;9.988;2023-04-25T10:41:53;98602.47;;;6.64;100.00
57114;BME280;42994;51.606;9.988;2023-04-25T10:44:21;98604.72;;;6.75;100.00
57114;BME280;42994;51.606;9.988;2023-04-25T10:46:48;98611.94;;;6.66;100.00
57114;BME280;42994;51.606;9.988;2023-04-25T10:49:35;98614.88;;;6.71;100.00
57114;BME280;42994;51.606;9.988;2023-04-25T10:52:18;98616.38;;;6.74;100.00
57114;BME280;42994;51.606;9.988;2023-04-25T10:54:52;98618.47;;;6.87;100.00
57114;BME280;42994;51.606;9.988;2023-04-25T10:57:35;98610.91;;;7.13;100.00
57114;BME280;42994;51.606;9.988;2023-04-25T11:00:08;98611.00;;;7.05;100.00
57114;BME280;42994;51.606;9.988;2023-04-25T11:02:40;98616.53;;;7.19;100.00
57114;BME280;42994;51.606;9.988;2023-04-25T11:05:09;98614.44;;;7.14;100.00
57114;BME280;42994;51.606;9.988;2023-04-25T11:07:45;98618.56;;;7.17;100.00
57114;BME280;42994;51.606;9.988;2023-04-25T11:10:15;98618.00;;;7.06;100.00
57114;BME280;42994;51.606;9.988;2023-04-25T11:12:41;98614.66;;;7.04;100.00
57114;BME280;42994;51.606;9.988;2023-04-25T11:15:08;98619.59;;;7.16;100.00
57114;BME280;42994;51.606;9.988;2023-04-25T11:17:35;98629.53;;;7.22;100.00
57114;BME280;42994;51.606;9.988;2023-04-25T11:20:02;98615.09;;;7.31;100.00
57114;BME280;42994;51.606;9.988;2023-04-25T11:22:34;98629.69;;;7.20;100.00
57114;BME280;42994;51.606;9.988;2023-04-25T11:25:05;98622.72;;;7.19;100.00
57114;BME280;42994;51.606;9.988;2023-04-25T11:27:31;98621.41;;;7.15;100.00
57114;BME280;42994;51.606;9.988;2023-04-25T11:29:58;98626.84;;;7.22;100.00
57114;BME280;42994;51.606;9.988;2023-04-25T11:32:24;98618.78;;;7.30;100.00
57114;BME280;42994;51.606;9.988;2023-04-25T11:34:52;98612.66;;;7.44;100.00
57114;BME280;42994;51.606;9.988;2023-04-25T11:37:19;98617.97;;;7.44;100.00
57114;BME280;42994;51.606;9.988;2023-04-25T11:39:47;98621.13;;;7.63;100.00
57114;BME280;42994;51.606;9.988;2023-04-25T11:42:14;98608.00;;;7.76;100.00
57114;BME280;42994;51.606;9.988;2023-04-25T11:44:41;98619.97;;;7.80;99.02
57114;BME280;42994;51.606;9.988;2023-04-25T11:47:07;98612.66;;;7.59;92.72
57114;BME280;42994;51.606;9.988;2023-04-25T11:49:35;98617.00;;;7.60;92.85
57114;BME280;42994;51.606;9.988;2023-04-25T11:52:01;98620.81;;;7.43;93.53
57114;BME280;42994;51.606;9.988;2023-04-25T11:54:28;98633.44;;;7.34;96.36
57114;BME280;42994;51.606;9.988;2023-04-25T11:56:56;98630.03;;;7.40;99.55
57114;BME280;42994;51.606;9.988;2023-04-25T11:59:24;98632.69;;;7.40;100.00
57114;BME280;42994;51.606;9.988;2023-04-25T12:01:50;98634.84;;;7.60;100.00
57114;BME280;42994;51.606;9.988;2023-04-25T12:04:18;98629.22;;;7.55;100.00
57114;BME280;42994;51.606;9.988;2023-04-25T12:06:46;98642.00;;;7.59;100.00
57114;BME280;42994;51.606;9.988;2023-04-25T12:09:15;98631.91;;;7.55;100.00
57114;BME280;42994;51.606;9.988;2023-04-25T12:11:44;98637.41;;;7.53;98.31
57114;BME280;42994;51.606;9.988;2023-04-25T12:14:19;98648.41;;;7.35;98.50
57114;BME280;42994;51.606;9.988;2023-04-25T12:16:47;98637.28;;;7.46;100.00
57114;BME280;42994;51.606;9.988;2023-04-25T12:19:14;98652.09;;;7.34;99.09
57114;BME280;42994;51.606;9.988;2023-04-25T12:21:42;98651.50;;;7.24;99.21
57114;BME280;42994;51.606;9.988;2023-04-25T12:24:10;98659.28;;;7.10;99.37
57114;BME280;42994;51.606;9.988;2023-04-25T12:26:51;98664.78;;;7.09;97.78
57114;BME280;42994;51.606;9.988;2023-04-25T12:29:21;98666.31;;;7.03;97.69
57114;BME280;42994;51.606;9.988;2023-04-25T12:31:49;98669.63;;;7.05;99.06
57114;BME280;42994;51.606;9.988;2023-04-25T12:34:17;98670.44;;;7.29;99.67
57114;BME280;42994;51.606;9.988;2023-04-25T12:36:43;98670.75;;;7.11;98.74
57114;BME280;42994;51.606;9.988;2023-04-25T12:39:14;98672.78;;;7.32;99.59
57114;BME280;42994;51.606;9.988;2023-04-25T12:41:41;98664.34;;;7.43;100.00
57114;BME280;42994;51.606;9.988;2023-04-25T12:44:08;98659.38;;;7.55;99.07
57114;BME280;42994;51.606;9.988;2023-04-25T12:46:37;98654.81;;;7.64;96.99
57114;BME280;42994;51.606;9.988;2023-04-25T12:49:04;98650.69;;;7.76;96.90
57114;BME280;42994;51.606;9.988;2023-04-25T12:51:32;98648.56;;;7.86;95.07
57114;BME280;42994;51.606;9.988;2023-04-25T12:54:00;98645.88;;;7.57;92.80
57114;BME280;42994;51.606;9.988;2023-04-25T12:56:26;98640.03;;;7.76;94.10
57114;BME280;42994;51.606;9.988;2023-04-25T12:58:54;98647.47;;;7.81;95.80
57114;BME280;42994;51.606;9.988;2023-04-25T13:01:21;98653.47;;;7.98;95.14
57114;BME280;42994;51.606;9.988;2023-04-25T13:03:49;98646.47;;;7.97;93.60
57114;BME280;42994;51.606;9.988;2023-04-25T13:06:17;98646.28;;;8.13;95.12
57114;BME280;42994;51.606;9.988;2023-04-25T13:08:45;98647.19;;;8.20;93.58
57114;BME280;42994;51.606;9.988;2023-04-25T13:11:11;98648.78;;;8.15;91.82
57114;BME280;42994;51.606;9.988;2023-04-25T13:13:40;98637.06;;;8.01;89.43
57114;BME280;42994;51.606;9.988;2023-04-25T13:16:07;98647.94;;;8.14;90.51
57114;BME280;42994;51.606;9.988;2023-04-25T13:18:34;98656.31;;;7.96;87.89
57114;BME280;42994;51.606;9.988;2023-04-25T13:21:02;98651.50;;;7.77;84.64